Pine Galaxy — C6TT5 — position and weather

sailwx.info

Track history (hours):
 
Tides and Currents Weather Stations Pressure Air Temp Water Temp Dewpoint Dewpoint Depression Visibility Wind Speed Wind Dir Waves Ship Positions

Pine Galaxy

Last reported at 2014-Aug-01 21:29 UTC. Time now 2014-Aug-01 22:32 UTC.
Position N 48°31' W 122°35'.

Length 147 m; draft 6.7 m.

Type: Tanker. MMSI: 311772000.

Date/timePositionNaut miles runAvg speedWind from/ knotsBaromVisibWave heightAir tempDewpointWater temp
2014-Aug-01 21:29N 48°31' W 122°35'0 0.0
2014-Aug-01 20:29N 48°31' W 122°35'0 0.0
2014-Aug-01 19:23N 48°31' W 122°35'0 0.0
2014-Aug-01 18:29N 48°31' W 122°35'0 0.0
2014-Aug-01 17:29N 48°31' W 122°35'0 0.0
2014-Aug-01 16:29N 48°31' W 122°35'0 0.0
2014-Aug-01 15:29N 48°31' W 122°35'0 0.0
2014-Aug-01 14:23N 48°31' W 122°35'0 0.0
2014-Aug-01 13:29N 48°31' W 122°35'0 0.0
2014-Aug-01 12:29N 48°31' W 122°35'0 0.0
2014-Aug-01 11:23N 48°31' W 122°35'0 0.0
2014-Aug-01 10:23N 48°31' W 122°35'0 0.0
2014-Aug-01 09:33N 48°31' W 122°35'1 0.5
2014-Aug-01 08:31N 48°31' W 122°34'0 0.0
2014-Aug-01 07:31N 48°31' W 122°34'0 0.0
2014-Aug-01 06:31N 48°31' W 122°34'0 0.0
2014-Aug-01 05:31N 48°31' W 122°34'0 0.0
2014-Aug-01 04:31N 48°31' W 122°34'0 0.0
2014-Aug-01 03:31N 48°31' W 122°34'0 0.0
2014-Aug-01 02:31N 48°31' W 122°34'0 0.0
2014-Aug-01 01:31N 48°31' W 122°34'0 0.0
2014-Aug-01 00:31N 48°31' W 122°34'0 0.1
2014-Jul-31 23:31N 48°31' W 122°34'0 0.0
2014-Jul-31 22:31N 48°31' W 122°34'0 0.1
2014-Jul-31 21:31N 48°31' W 122°34'0 0.0
2014-Jul-31 20:31N 48°31' W 122°34'0 0.0
2014-Jul-31 19:31N 48°31' W 122°34'0 0.0
2014-Jul-31 18:28N 48°31' W 122°34'0 0.0
2014-Jul-31 17:31N 48°31' W 122°34'0 0.0
2014-Jul-31 16:31N 48°31' W 122°34'0 0.0
2014-Jul-31 15:31N 48°31' W 122°34'0 0.0
2014-Jul-31 14:31N 48°31' W 122°34'0 0.0
2014-Jul-31 13:25N 48°31' W 122°34'0 0.0
2014-Jul-31 12:31N 48°31' W 122°34'0 0.0
2014-Jul-31 11:31N 48°31' W 122°34'0 0.0
2014-Jul-31 10:31N 48°31' W 122°34'0 0.0
2014-Jul-31 09:31N 48°31' W 122°34'0 0.0
2014-Jul-31 08:28N 48°31' W 122°34'0 0.0
2014-Jul-31 07:25N 48°31' W 122°34'0 0.1
2014-Jul-31 06:31N 48°31' W 122°34'0 0.0
2014-Jul-31 05:31N 48°31' W 122°34'0 0.0
2014-Jul-31 04:31N 48°31' W 122°34'0 0.0
2014-Jul-31 03:31N 48°31' W 122°34'0 0.0
2014-Jul-31 02:13N 48°31' W 122°34'0 0.1
2014-Jul-31 01:22N 48°31' W 122°34'0 0.0
2014-Jul-31 00:31N 48°31' W 122°34'0 0.0
2014-Jul-30 23:31N 48°31' W 122°34'0 0.1
2014-Jul-30 22:31N 48°31' W 122°34'0 0.1
2014-Jul-30 21:31N 48°31' W 122°34'6 5.8
2014-Jul-30 20:33N 48°31' W 122°43'1211.9
2014-Jul-30 19:33N 48°21' W 122°54'1313.2
2014-Jul-30 18:33N 48°15' W 123°11'1110.6
2014-Jul-30 17:33N 48°10' W 123°25'7 7.2
2014-Jul-30 16:33N 48°13' W 123°35'5 5.1
2014-Jul-30 15:33N 48°13' W 123°43'7 7.2
2014-Jul-30 14:33N 48°13' W 123°54'6 6.5
2014-Jul-30 13:33N 48°16' W 124°03'10 9.8
2014-Jul-30 12:33N 48°20' W 124°16'10 9.7
2014-Jul-30 11:34N 48°24' W 124°29'1111.2
2014-Jul-30 10:33N 48°29' W 124°45'1111.2
2014-Jul-30 09:33N 48°26' W 125°01'1211.5
2014-Jul-30 08:33N 48°17' W 125°10'1211.7
2014-Jul-30 07:33N 48°07' W 125°21'1111.2
2014-Jul-30 06:33N 47°59' W 125°31'1110.7
2014-Jul-30 05:33N 47°50' W 125°41'1110.7
2014-Jul-30 04:30N 47°41' W 125°51'1410.7
2014-Jul-30 03:09N 47°30' W 126°05'52411.7
2014-Jul-28 06:31N 38°48' W 124°53'1712.0
2014-Jul-28 05:06N 38°35' W 124°39'611.8
2014-Jul-28 04:34N 38°30' W 124°34'1212.0
2014-Jul-28 03:32N 38°21' W 124°23'1212.5
2014-Jul-28 02:33N 38°11' W 124°13'1312.7
2014-Jul-28 01:33N 38°01' W 124°04'1212.4
2014-Jul-28 00:33N 37°52' W 123°54'1312.7
2014-Jul-27 23:33N 37°42' W 123°43'1212.3
2014-Jul-27 22:33N 37°35' W 123°31'1313.2
2014-Jul-27 21:33N 37°34' W 123°14'1211.8
2014-Jul-27 20:33N 37°37' W 122°60'1212.2
2014-Jul-27 19:33N 37°43' W 122°47'1111.2
2014-Jul-27 18:33N 37°47' W 122°34'9 8.6
2014-Jul-27 17:33N 37°52' W 122°25'3 3.1
2014-Jul-27 16:31N 37°55' W 122°25'0 0.0
2014-Jul-27 15:31N 37°55' W 122°25'0 0.0
2014-Jul-27 14:31N 37°55' W 122°25'0 0.0
2014-Jul-27 13:31N 37°55' W 122°25'0 0.0
2014-Jul-27 12:31N 37°55' W 122°25'0 0.0
2014-Jul-27 11:31N 37°55' W 122°25'0 0.0
2014-Jul-27 10:31N 37°55' W 122°25'0 0.0
2014-Jul-27 09:31N 37°55' W 122°25'0 0.0
2014-Jul-27 08:31N 37°55' W 122°25'0 0.0
2014-Jul-27 07:31N 37°55' W 122°25'0 0.0
2014-Jul-27 06:31N 37°55' W 122°25'0 0.0
2014-Jul-27 05:31N 37°55' W 122°25'0 0.0
2014-Jul-27 04:28N 37°55' W 122°25'0 0.0
2014-Jul-27 03:31N 37°55' W 122°25'0 0.0
2014-Jul-27 02:31N 37°55' W 122°25'0 0.0
2014-Jul-27 01:31N 37°55' W 122°25'0 0.0
2014-Jul-27 00:31N 37°55' W 122°25'0 0.0
2014-Jul-26 23:31N 37°55' W 122°25'0 0.0
2014-Jul-26 22:31N 37°55' W 122°25'0 0.0
2014-Jul-26 21:31N 37°55' W 122°25'0 0.0
2014-Jul-26 20:31N 37°55' W 122°25'0 0.0
2014-Jul-26 19:31N 37°55' W 122°25'0 0.0
2014-Jul-26 18:31N 37°55' W 122°25'0 0.0
2014-Jul-26 17:31N 37°55' W 122°25'5 5.6
2014-Jul-26 16:33N 37°50' W 122°24'5 5.4
2014-Jul-26 15:33N 37°45' W 122°20'0 0.1
2014-Jul-26 14:33N 37°46' W 122°20'0 0.2
2014-Jul-26 13:33N 37°46' W 122°20'0 0.0
2014-Jul-26 12:33N 37°46' W 122°20'0 0.0
2014-Jul-26 11:33N 37°46' W 122°20'0 0.0
2014-Jul-26 10:33N 37°46' W 122°20'0 0.0
2014-Jul-26 09:33N 37°46' W 122°20'0 0.0
2014-Jul-26 08:33N 37°46' W 122°20'0 0.1
2014-Jul-26 07:33N 37°46' W 122°20'0 0.1
2014-Jul-26 06:33N 37°46' W 122°20'0 0.0
2014-Jul-26 05:33N 37°45' W 122°20'0 0.0
2014-Jul-26 04:33N 37°45' W 122°20'0 0.0
2014-Jul-26 03:33N 37°45' W 122°20'0 0.0
2014-Jul-26 02:33N 37°45' W 122°20'0 0.1
2014-Jul-26 01:33N 37°46' W 122°20'0 0.1
2014-Jul-26 00:33N 37°46' W 122°20'0 0.0
2014-Jul-25 23:33N 37°46' W 122°20'0 0.0
2014-Jul-25 22:33N 37°46' W 122°20'0 0.0
2014-Jul-25 21:33N 37°46' W 122°20'0 0.1
2014-Jul-25 20:33N 37°45' W 122°20'0 0.0
2014-Jul-25 19:33N 37°45' W 122°20'0 0.0
2014-Jul-25 18:33N 37°45' W 122°20'0 0.0
2014-Jul-25 17:33N 37°45' W 122°20'0 0.0
2014-Jul-25 16:33N 37°45' W 122°20'0 0.0
2014-Jul-25 15:33N 37°45' W 122°20'0 0.0
2014-Jul-25 14:33N 37°45' W 122°20'0 0.1
2014-Jul-25 13:33N 37°46' W 122°20'0 0.0
2014-Jul-25 12:33N 37°46' W 122°20'0 0.0
2014-Jul-25 11:33N 37°46' W 122°20'0 0.0
2014-Jul-25 10:33N 37°46' W 122°20'0 0.0
2014-Jul-25 09:33N 37°46' W 122°20'0 0.0
2014-Jul-25 08:33N 37°46' W 122°20'0 0.0
2014-Jul-25 07:33N 37°46' W 122°20'0 0.1
2014-Jul-25 06:33N 37°45' W 122°20'0 0.0
2014-Jul-25 05:33N 37°45' W 122°20'0 0.0
2014-Jul-25 04:33N 37°45' W 122°20'0 0.0
2014-Jul-25 03:33N 37°45' W 122°20'0 0.0
2014-Jul-25 02:33N 37°45' W 122°20'0 0.0
2014-Jul-25 01:33N 37°46' W 122°20'0 0.0
2014-Jul-25 00:33N 37°46' W 122°20'0 0.1
2014-Jul-24 23:33N 37°46' W 122°20'0 0.1
2014-Jul-24 22:33N 37°46' W 122°20'0 0.0
2014-Jul-24 21:33N 37°46' W 122°20'0 0.0
2014-Jul-24 20:33N 37°46' W 122°20'0 0.1
2014-Jul-24 19:33N 37°45' W 122°20'0 0.0
2014-Jul-24 18:33N 37°45' W 122°20'0 0.0
2014-Jul-24 17:33N 37°45' W 122°20'0 0.0
2014-Jul-24 16:27N 37°45' W 122°20'0 0.0
2014-Jul-24 15:33N 37°45' W 122°20'0 0.0
2014-Jul-24 14:33N 37°45' W 122°20'0 0.1
2014-Jul-24 13:33N 37°46' W 122°20'0 0.1
2014-Jul-24 12:33N 37°46' W 122°20'0 0.0
2014-Jul-24 11:33N 37°46' W 122°20'0 0.0
2014-Jul-24 10:33N 37°46' W 122°20'0 0.0
2014-Jul-24 09:33N 37°46' W 122°20'0 0.0
2014-Jul-24 08:33N 37°46' W 122°20'0 0.0
2014-Jul-24 07:33N 37°46' W 122°20'0 0.0
2014-Jul-24 06:33N 37°46' W 122°20'0 0.1
2014-Jul-24 05:33N 37°46' W 122°20'0 0.0
2014-Jul-24 04:30N 37°45' W 122°20'0 0.1
2014-Jul-24 03:33N 37°45' W 122°20'0 0.0
2014-Jul-24 02:33N 37°45' W 122°20'0 0.0
2014-Jul-24 01:33N 37°46' W 122°20'0 0.0
2014-Jul-24 00:33N 37°46' W 122°20'0 0.1
2014-Jul-23 23:33N 37°46' W 122°20'0 0.1
2014-Jul-23 22:33N 37°46' W 122°20'0 0.0
2014-Jul-23 21:33N 37°46' W 122°20'0 0.0
2014-Jul-23 20:33N 37°46' W 122°20'0 0.1
2014-Jul-23 19:33N 37°45' W 122°20'0 0.0
2014-Jul-23 18:33N 37°45' W 122°20'0 0.0
2014-Jul-23 17:33N 37°45' W 122°20'0 0.0
2014-Jul-23 16:33N 37°45' W 122°20'0 0.0
2014-Jul-23 15:33N 37°45' W 122°20'0 0.0
2014-Jul-23 14:33N 37°45' W 122°20'0 0.0
2014-Jul-23 13:33N 37°45' W 122°20'0 0.2
2014-Jul-23 12:33N 37°46' W 122°20'0 0.0
2014-Jul-23 11:33N 37°46' W 122°20'0 0.0
2014-Jul-23 10:33N 37°46' W 122°20'0 0.0
2014-Jul-23 09:33N 37°46' W 122°20'0 0.0
2014-Jul-23 08:33N 37°46' W 122°20'0 0.0
2014-Jul-23 07:33N 37°46' W 122°20'0 0.0
2014-Jul-23 06:33N 37°46' W 122°20'0 0.1
2014-Jul-23 05:33N 37°46' W 122°20'0 0.1
2014-Jul-23 04:33N 37°46' W 122°20'0 0.1
2014-Jul-23 03:33N 37°45' W 122°20'0 0.0
2014-Jul-23 02:33N 37°45' W 122°20'0 0.0
2014-Jul-23 01:33N 37°45' W 122°20'0 0.1
2014-Jul-23 00:33N 37°46' W 122°20'0 0.1
2014-Jul-22 23:33N 37°46' W 122°20'0 0.1
2014-Jul-22 22:33N 37°46' W 122°20'0 0.1
2014-Jul-22 21:33N 37°46' W 122°20'  
Track history (hours):
 
Tides and Currents Weather Stations Pressure Air Temp Water Temp Dewpoint Dewpoint Depression Visibility Wind Speed Wind Dir Waves Ship Positions

Pine Galaxy

Last reported at 2014-Aug-01 21:29 UTC. Time now 2014-Aug-01 22:32 UTC.
Position N 48°31' W 122°35'.

Length 147 m; draft 6.7 m.

Type: Tanker. MMSI: 311772000.

Date/timePositionNaut miles runAvg speedWind from/ knotsBaromVisibWave heightAir tempDewpointWater temp
2014-Aug-01 21:29N 48°31' W 122°35'0 0.0
2014-Aug-01 20:29N 48°31' W 122°35'0 0.0
2014-Aug-01 19:23N 48°31' W 122°35'0 0.0
2014-Aug-01 18:29N 48°31' W 122°35'0 0.0
2014-Aug-01 17:29N 48°31' W 122°35'0 0.0
2014-Aug-01 16:29N 48°31' W 122°35'0 0.0
2014-Aug-01 15:29N 48°31' W 122°35'0 0.0
2014-Aug-01 14:23N 48°31' W 122°35'0 0.0
2014-Aug-01 13:29N 48°31' W 122°35'0 0.0
2014-Aug-01 12:29N 48°31' W 122°35'0 0.0
2014-Aug-01 11:23N 48°31' W 122°35'0 0.0
2014-Aug-01 10:23N 48°31' W 122°35'0 0.0
2014-Aug-01 09:33N 48°31' W 122°35'1 0.5
2014-Aug-01 08:31N 48°31' W 122°34'0 0.0
2014-Aug-01 07:31N 48°31' W 122°34'0 0.0
2014-Aug-01 06:31N 48°31' W 122°34'0 0.0
2014-Aug-01 05:31N 48°31' W 122°34'0 0.0
2014-Aug-01 04:31N 48°31' W 122°34'0 0.0
2014-Aug-01 03:31N 48°31' W 122°34'0 0.0
2014-Aug-01 02:31N 48°31' W 122°34'0 0.0
2014-Aug-01 01:31N 48°31' W 122°34'0 0.0
2014-Aug-01 00:31N 48°31' W 122°34'0 0.1
2014-Jul-31 23:31N 48°31' W 122°34'0 0.0
2014-Jul-31 22:31N 48°31' W 122°34'0 0.1
2014-Jul-31 21:31N 48°31' W 122°34'0 0.0
2014-Jul-31 20:31N 48°31' W 122°34'0 0.0
2014-Jul-31 19:31N 48°31' W 122°34'0 0.0
2014-Jul-31 18:28N 48°31' W 122°34'0 0.0
2014-Jul-31 17:31N 48°31' W 122°34'0 0.0
2014-Jul-31 16:31N 48°31' W 122°34'0 0.0
2014-Jul-31 15:31N 48°31' W 122°34'0 0.0
2014-Jul-31 14:31N 48°31' W 122°34'0 0.0
2014-Jul-31 13:25N 48°31' W 122°34'0 0.0
2014-Jul-31 12:31N 48°31' W 122°34'0 0.0
2014-Jul-31 11:31N 48°31' W 122°34'0 0.0
2014-Jul-31 10:31N 48°31' W 122°34'0 0.0
2014-Jul-31 09:31N 48°31' W 122°34'0 0.0
2014-Jul-31 08:28N 48°31' W 122°34'0 0.0
2014-Jul-31 07:25N 48°31' W 122°34'0 0.1
2014-Jul-31 06:31N 48°31' W 122°34'0 0.0
2014-Jul-31 05:31N 48°31' W 122°34'0 0.0
2014-Jul-31 04:31N 48°31' W 122°34'0 0.0
2014-Jul-31 03:31N 48°31' W 122°34'0 0.0
2014-Jul-31 02:13N 48°31' W 122°34'0 0.1
2014-Jul-31 01:22N 48°31' W 122°34'0 0.0
2014-Jul-31 00:31N 48°31' W 122°34'0 0.0
2014-Jul-30 23:31N 48°31' W 122°34'0 0.1
2014-Jul-30 22:31N 48°31' W 122°34'0 0.1
2014-Jul-30 21:31N 48°31' W 122°34'6 5.8
2014-Jul-30 20:33N 48°31' W 122°43'1211.9
2014-Jul-30 19:33N 48°21' W 122°54'1313.2
2014-Jul-30 18:33N 48°15' W 123°11'1110.6
2014-Jul-30 17:33N 48°10' W 123°25'7 7.2
2014-Jul-30 16:33N 48°13' W 123°35'5 5.1
2014-Jul-30 15:33N 48°13' W 123°43'7 7.2
2014-Jul-30 14:33N 48°13' W 123°54'6 6.5
2014-Jul-30 13:33N 48°16' W 124°03'10 9.8
2014-Jul-30 12:33N 48°20' W 124°16'10 9.7
2014-Jul-30 11:34N 48°24' W 124°29'1111.2
2014-Jul-30 10:33N 48°29' W 124°45'1111.2
2014-Jul-30 09:33N 48°26' W 125°01'1211.5
2014-Jul-30 08:33N 48°17' W 125°10'1211.7
2014-Jul-30 07:33N 48°07' W 125°21'1111.2
2014-Jul-30 06:33N 47°59' W 125°31'1110.7
2014-Jul-30 05:33N 47°50' W 125°41'1110.7
2014-Jul-30 04:30N 47°41' W 125°51'1410.7
2014-Jul-30 03:09N 47°30' W 126°05'52411.7
2014-Jul-28 06:31N 38°48' W 124°53'1712.0
2014-Jul-28 05:06N 38°35' W 124°39'611.8
2014-Jul-28 04:34N 38°30' W 124°34'1212.0
2014-Jul-28 03:32N 38°21' W 124°23'1212.5
2014-Jul-28 02:33N 38°11' W 124°13'1312.7
2014-Jul-28 01:33N 38°01' W 124°04'1212.4
2014-Jul-28 00:33N 37°52' W 123°54'1312.7
2014-Jul-27 23:33N 37°42' W 123°43'1212.3
2014-Jul-27 22:33N 37°35' W 123°31'1313.2
2014-Jul-27 21:33N 37°34' W 123°14'1211.8
2014-Jul-27 20:33N 37°37' W 122°60'1212.2
2014-Jul-27 19:33N 37°43' W 122°47'1111.2
2014-Jul-27 18:33N 37°47' W 122°34'9 8.6
2014-Jul-27 17:33N 37°52' W 122°25'3 3.1
2014-Jul-27 16:31N 37°55' W 122°25'0 0.0
2014-Jul-27 15:31N 37°55' W 122°25'0 0.0
2014-Jul-27 14:31N 37°55' W 122°25'0 0.0
2014-Jul-27 13:31N 37°55' W 122°25'0 0.0
2014-Jul-27 12:31N 37°55' W 122°25'0 0.0
2014-Jul-27 11:31N 37°55' W 122°25'0 0.0
2014-Jul-27 10:31N 37°55' W 122°25'0 0.0
2014-Jul-27 09:31N 37°55' W 122°25'0 0.0
2014-Jul-27 08:31N 37°55' W 122°25'0 0.0
2014-Jul-27 07:31N 37°55' W 122°25'0 0.0
2014-Jul-27 06:31N 37°55' W 122°25'0 0.0
2014-Jul-27 05:31N 37°55' W 122°25'0 0.0
2014-Jul-27 04:28N 37°55' W 122°25'0 0.0
2014-Jul-27 03:31N 37°55' W 122°25'0 0.0
2014-Jul-27 02:31N 37°55' W 122°25'0 0.0
2014-Jul-27 01:31N 37°55' W 122°25'0 0.0
2014-Jul-27 00:31N 37°55' W 122°25'0 0.0
2014-Jul-26 23:31N 37°55' W 122°25'0 0.0
2014-Jul-26 22:31N 37°55' W 122°25'0 0.0
2014-Jul-26 21:31N 37°55' W 122°25'0 0.0
2014-Jul-26 20:31N 37°55' W 122°25'0 0.0
2014-Jul-26 19:31N 37°55' W 122°25'0 0.0
2014-Jul-26 18:31N 37°55' W 122°25'0 0.0
2014-Jul-26 17:31N 37°55' W 122°25'5 5.6
2014-Jul-26 16:33N 37°50' W 122°24'5 5.4
2014-Jul-26 15:33N 37°45' W 122°20'0 0.1
2014-Jul-26 14:33N 37°46' W 122°20'0 0.2
2014-Jul-26 13:33N 37°46' W 122°20'0 0.0
2014-Jul-26 12:33N 37°46' W 122°20'0 0.0
2014-Jul-26 11:33N 37°46' W 122°20'0 0.0
2014-Jul-26 10:33N 37°46' W 122°20'0 0.0
2014-Jul-26 09:33N 37°46' W 122°20'0 0.0
2014-Jul-26 08:33N 37°46' W 122°20'0 0.1
2014-Jul-26 07:33N 37°46' W 122°20'0 0.1
2014-Jul-26 06:33N 37°46' W 122°20'0 0.0
2014-Jul-26 05:33N 37°45' W 122°20'0 0.0
2014-Jul-26 04:33N 37°45' W 122°20'0 0.0
2014-Jul-26 03:33N 37°45' W 122°20'0 0.0
2014-Jul-26 02:33N 37°45' W 122°20'0 0.1
2014-Jul-26 01:33N 37°46' W 122°20'0 0.1
2014-Jul-26 00:33N 37°46' W 122°20'0 0.0
2014-Jul-25 23:33N 37°46' W 122°20'0 0.0
2014-Jul-25 22:33N 37°46' W 122°20'0 0.0
2014-Jul-25 21:33N 37°46' W 122°20'0 0.1
2014-Jul-25 20:33N 37°45' W 122°20'0 0.0
2014-Jul-25 19:33N 37°45' W 122°20'0 0.0
2014-Jul-25 18:33N 37°45' W 122°20'0 0.0
2014-Jul-25 17:33N 37°45' W 122°20'0 0.0
2014-Jul-25 16:33N 37°45' W 122°20'0 0.0
2014-Jul-25 15:33N 37°45' W 122°20'0 0.0
2014-Jul-25 14:33N 37°45' W 122°20'0 0.1
2014-Jul-25 13:33N 37°46' W 122°20'0 0.0
2014-Jul-25 12:33N 37°46' W 122°20'0 0.0
2014-Jul-25 11:33N 37°46' W 122°20'0 0.0
2014-Jul-25 10:33N 37°46' W 122°20'0 0.0
2014-Jul-25 09:33N 37°46' W 122°20'0 0.0
2014-Jul-25 08:33N 37°46' W 122°20'0 0.0
2014-Jul-25 07:33N 37°46' W 122°20'0 0.1
2014-Jul-25 06:33N 37°45' W 122°20'0 0.0
2014-Jul-25 05:33N 37°45' W 122°20'0 0.0
2014-Jul-25 04:33N 37°45' W 122°20'0 0.0
2014-Jul-25 03:33N 37°45' W 122°20'0 0.0
2014-Jul-25 02:33N 37°45' W 122°20'0 0.0
2014-Jul-25 01:33N 37°46' W 122°20'0 0.0
2014-Jul-25 00:33N 37°46' W 122°20'0 0.1
2014-Jul-24 23:33N 37°46' W 122°20'0 0.1
2014-Jul-24 22:33N 37°46' W 122°20'0 0.0
2014-Jul-24 21:33N 37°46' W 122°20'0 0.0
2014-Jul-24 20:33N 37°46' W 122°20'0 0.1
2014-Jul-24 19:33N 37°45' W 122°20'0 0.0
2014-Jul-24 18:33N 37°45' W 122°20'0 0.0
2014-Jul-24 17:33N 37°45' W 122°20'0 0.0
2014-Jul-24 16:27N 37°45' W 122°20'0 0.0
2014-Jul-24 15:33N 37°45' W 122°20'0 0.0
2014-Jul-24 14:33N 37°45' W 122°20'0 0.1
2014-Jul-24 13:33N 37°46' W 122°20'0 0.1
2014-Jul-24 12:33N 37°46' W 122°20'0 0.0
2014-Jul-24 11:33N 37°46' W 122°20'0 0.0
2014-Jul-24 10:33N 37°46' W 122°20'0 0.0
2014-Jul-24 09:33N 37°46' W 122°20'0 0.0
2014-Jul-24 08:33N 37°46' W 122°20'0 0.0
2014-Jul-24 07:33N 37°46' W 122°20'0 0.0
2014-Jul-24 06:33N 37°46' W 122°20'0 0.1
2014-Jul-24 05:33N 37°46' W 122°20'0 0.0
2014-Jul-24 04:30N 37°45' W 122°20'0 0.1
2014-Jul-24 03:33N 37°45' W 122°20'0 0.0
2014-Jul-24 02:33N 37°45' W 122°20'0 0.0
2014-Jul-24 01:33N 37°46' W 122°20'0 0.0
2014-Jul-24 00:33N 37°46' W 122°20'0 0.1
2014-Jul-23 23:33N 37°46' W 122°20'0 0.1
2014-Jul-23 22:33N 37°46' W 122°20'0 0.0
2014-Jul-23 21:33N 37°46' W 122°20'0 0.0
2014-Jul-23 20:33N 37°46' W 122°20'0 0.1
2014-Jul-23 19:33N 37°45' W 122°20'0 0.0
2014-Jul-23 18:33N 37°45' W 122°20'0 0.0
2014-Jul-23 17:33N 37°45' W 122°20'0 0.0
2014-Jul-23 16:33N 37°45' W 122°20'0 0.0
2014-Jul-23 15:33N 37°45' W 122°20'0 0.0
2014-Jul-23 14:33N 37°45' W 122°20'0 0.0
2014-Jul-23 13:33N 37°45' W 122°20'0 0.2
2014-Jul-23 12:33N 37°46' W 122°20'0 0.0
2014-Jul-23 11:33N 37°46' W 122°20'0 0.0
2014-Jul-23 10:33N 37°46' W 122°20'0 0.0
2014-Jul-23 09:33N 37°46' W 122°20'0 0.0
2014-Jul-23 08:33N 37°46' W 122°20'0 0.0
2014-Jul-23 07:33N 37°46' W 122°20'0 0.0
2014-Jul-23 06:33N 37°46' W 122°20'0 0.1
2014-Jul-23 05:33N 37°46' W 122°20'0 0.1
2014-Jul-23 04:33N 37°46' W 122°20'0 0.1
2014-Jul-23 03:33N 37°45' W 122°20'0 0.0
2014-Jul-23 02:33N 37°45' W 122°20'0 0.0
2014-Jul-23 01:33N 37°45' W 122°20'0 0.1
2014-Jul-23 00:33N 37°46' W 122°20'0 0.1
2014-Jul-22 23:33N 37°46' W 122°20'0 0.1
2014-Jul-22 22:33N 37°46' W 122°20'0 0.1
2014-Jul-22 21:33N 37°46' W 122°20'  

Dump ship's entire track history